Nearby METAR Reports - 80 Mile Radius
Meteorological Terminal Air Report (METAR)


KBWI - Balto/Wash Intl Airport, Maryland
Distance from station: S 5mi, 8km
Updated: Sun, 15-Sep-2019 5:20am EDT
Mostly Cloudy
Mostly Cloudy
 Wind from NW
Wind: NW 3 mph , 6 km/h
Temperature: 73°F , 23°C
Dew Point: 70°F , 21°C
Humidity: 89%
Barometer: 30.15 inHg , 1021 hPa
Clouds: Mostly Cloudy
Visibility: 10 miles , 16 km
Cloud details: Mostly Cloudy 2600 ft
Mostly Cloudy 4500 ft
Mostly Cloudy 25000 ft
2019/09/15 09:20 KBWI 150920Z 32003KT 10SM BKN026 BKN045 BKN250 23/21 A3015 RMK AO2 T02280206
KDMH - Baltimore/Dwntwn, Maryland
Distance from station: NE 5mi, 9km
Updated: Sun, 15-Sep-2019 4:54am EDT

 
Temperature: 75°F , 24°C
Dew Point: 68°F , 20°C
Humidity: 78%
Barometer: 30.16 inHg , 1021.3 hPa
2019/09/15 08:54 KDMH 150854Z AUTO 24/20 A3016 RMK AO1 SLP212 T02390200 53000
KFME - Fort Meade/Tipton AAF, Maryland
Distance from station: SSW 11mi, 18km
Updated: Sun, 15-Sep-2019 5:21am EDT
Overcast
Overcast
 Wind from calm
Wind: Calm
Temperature: 70°F , 21°C
Dew Point: 68°F , 20°C
Humidity: 94%
Barometer: 30.18 inHg , 1022 hPa
Clouds: Overcast
Visibility: 10 miles , 16 km
Cloud details: Overcast 3600 ft
2019/09/15 09:21 KFME 150921Z AUTO 00000KT 10SM OVC036 21/20 A3018 RMK AO1
 
KMTN - Balto/Martin State Airport, Maryland
Distance from station: ENE 16mi, 26km
Updated: Sun, 15-Sep-2019 5:22am EDT
Overcast
Overcast
 Wind from calm
Wind: Calm
Temperature: 73°F , 23°C
Dew Point: 72°F , 22°C
Humidity: 94%
Barometer: 30.17 inHg , 1021.7 hPa
Clouds: Overcast
Visibility: 10 miles , 16 km
Cloud details: Overcast 2300 ft
2019/09/15 09:22 KMTN 150922Z AUTO 00000KT 10SM OVC023 23/22 A3017 RMK AO2
KCGS - College Park Airport, Maryland
Distance from station: SSW 21mi, 34km
Updated: Sun, 15-Sep-2019 5:22am EDT
Overcast
Overcast
 Wind from calm
Wind: Calm
Temperature: 73°F , 23°C
Dew Point: 64°F , 18°C
Humidity: 74%
Barometer: 30.16 inHg , 1021.3 hPa
Clouds: Overcast
Visibility: 10 miles , 16 km
Cloud details: Partly Cloudy 2200 ft
Overcast 3600 ft
2019/09/15 09:22 KCGS 150922Z AUTO 00000KT 10SM SCT022 OVC036 23/18 A3016 RMK AO1 T02310181
KNAK - Annapolis/Naval Academy, Maryland
Distance from station: SE 21mi, 34km
Updated: Sun, 15-Sep-2019 4:54am EDT
Overcast
Overcast
 Wind from calm
Wind: Calm
Temperature: 79°F , 26°C
Dew Point: 70°F , 21°C
Humidity: 74%
Barometer: 30.14 inHg , 1020.7 hPa
Clouds: Overcast
Visibility: 10 miles , 16 km
Cloud details: Partly Cloudy 3500 ft
Overcast 4500 ft
2019/09/15 08:54 KNAK 150854Z AUTO 00000KT 10SM SCT035 OVC045 26/21 A3014 RMK AO2 SLP209 T02560211 55002 $
 
KGAI - Gaithersburg/Montgomery Co Airpark, Maryland
Distance from station: W 26mi, 41km
Updated: Sun, 15-Sep-2019 5:19am EDT
Few Clouds
Few Clouds
 Wind from NW
Wind: NW 5 mph , 7 km/h
Temperature: 70°F , 21°C
Dew Point: 66°F , 19°C
Humidity: 88%
Barometer: 30.19 inHg , 1022.4 hPa
Clouds: Few Clouds
Visibility: 10 miles , 16 km
Cloud details: Few Clouds 3100 ft
2019/09/15 09:19 KGAI 150919Z AUTO 32004KT 10SM FEW031 21/19 A3019 RMK AO2
KW29 - Stevensville/Bay Bridge Airport, Maryland
Distance from station: SE 26mi, 42km
Updated: Sun, 15-Sep-2019 5:20am EDT
Overcast
Overcast
 Wind from calm
Wind: Calm
Temperature: 75°F , 24°C
Dew Point: 75°F , 24°C
Humidity: 100%
Barometer: 30.15 inHg , 1021 hPa
Clouds: Overcast
Visibility: 7 miles , 11 km
Cloud details: Overcast 3300 ft
2019/09/15 09:20 KW29 150920Z AUTO 00000KT 7SM OVC033 24/24 A3015 RMK AO2
KDMW - Carroll Co Regional Airport, Maryland
Distance from station: NNW 30mi, 48km
Updated: Sun, 15-Sep-2019 5:20am EDT
Clear
Clear
 Wind from calm
Wind: Calm
Temperature: 70°F , 21°C
Dew Point: 66°F , 19°C
Humidity: 88%
Barometer: 30.20 inHg , 1022.7 hPa
Clouds: Clear
Visibility: 7 miles , 11 km
2019/09/15 09:20 KDMW 150920Z AUTO 00000KT 7SM CLR 21/19 A3020 RMK AO2 LTG DSNT W
 
KADW - Andrews AFB, Maryland
Distance from station: SSW 30mi, 49km
Updated: Sun, 15-Sep-2019 5:16am EDT
Mostly Cloudy
Mostly Cloudy
 Wind from W
Wind: W 6 mph , 9 km/h
Temperature: 73°F , 23°C
Dew Point: 70°F , 21°C
Humidity: 89%
Barometer: 30.15 inHg , 1021 hPa
Clouds: Mostly Cloudy
Visibility: 10 miles , 16 km
Cloud details: Mostly Cloudy 2900 ft
Mostly Cloudy 3600 ft
2019/09/15 09:16 KADW 150916Z AUTO 26005KT 10SM BKN029 BKN036 23/21 A3015 RMK AO2 SLP214 $
KAPG - Aberdeen/Phillip AAF, Maryland
Distance from station: ENE 32mi, 52km
Updated: Fri, 13-Sep-2019 7:50pm EDT
NOT Current
Overcast
Overcast
 Wind from ESE
Wind: ESE 8 mph , 13 km/h
Temperature: 68°F , 20°C
Dew Point: 55°F , 13°C
Humidity: 64%
Barometer: 30.39 inHg , 1029.1 hPa
Clouds: Overcast
Visibility: 10 miles , 16 km
Cloud details: Overcast 5000 ft
2019/09/13 23:50 KAPG 132350Z 11007KT 10SM OVC050 20/13 A3039 RMK SLP294 55002
KDCA - Washington/Natl Airport, Washington D.C.
Distance from station: SW 32mi, 52km
Updated: Sun, 15-Sep-2019 4:52am EDT
Overcast
Overcast
 Wind from calm
Wind: Calm
Temperature: 75°F , 24°C
Dew Point: 70°F , 21°C
Humidity: 83%
Barometer: 30.16 inHg , 1021.3 hPa
Clouds: Overcast
Visibility: 10 miles , 16 km
Cloud details: Overcast 2900 ft
2019/09/15 08:52 KDCA 150852Z 00000KT 10SM OVC029 24/21 A3016 RMK AO2 SLP213 T02390211 55002
 
KFDK - Frederick Municipal Airport, Maryland
Distance from station: WNW 38mi, 61km
Updated: Sat, 14-Sep-2019 8:47pm EDT
NOT Current
Rain, Overcast
Rain, Overcast
 Wind from calm
Wind: Calm
Temperature: 75°F , 24°C
Dew Point: 70°F , 21°C
Humidity: 83%
Barometer: 30.18 inHg , 1022 hPa
Summary: Rain
Clouds: Overcast
Visibility: 7 miles , 11 km
Cloud details: Partly Cloudy 2700 ft
Mostly Cloudy 5000 ft
Overcast 7500 ft
2019/09/15 00:47 KFDK 150047Z 00000KT 7SM RA SCT027 BKN050 OVC075 24/21 A3018
KDAA - Fort Belvoir/Davison AAF, Virginia
Distance from station: SW 44mi, 71km
Updated: Sun, 15-Sep-2019 4:56am EDT
Overcast
Overcast
 Wind from calm
Wind: Calm
Temperature: 72°F , 22°C
Dew Point: 70°F , 21°C
Humidity: 94%
Barometer: 30.16 inHg , 1021.3 hPa
Clouds: Overcast
Visibility: 10 miles , 16 km
Cloud details: Overcast 2800 ft
2019/09/15 08:56 KDAA 150856Z AUTO 00000KT 10SM OVC028 22/21 A3016 RMK AO2 OVC V BKN SLP215 T02220208 55002 $
KESN - Easton/Newnam Field Airport, Maryland
Distance from station: SE 45mi, 73km
Updated: Sun, 15-Sep-2019 5:40am EDT
Mostly Cloudy
Mostly Cloudy
 Wind from calm
Wind: Calm
Temperature: 75°F , 24°C
Dew Point: 73°F , 23°C
Humidity: 94%
Barometer: 30.19 inHg , 1022.4 hPa
Clouds: Mostly Cloudy
Visibility: 10 miles , 16 km
Cloud details: Partly Cloudy 3700 ft
Mostly Cloudy 4500 ft
Mostly Cloudy 6000 ft
2019/09/15 09:40 KESN 150940Z AUTO 00000KT 10SM SCT037 BKN045 BKN060 24/23 A3019 RMK AO2 T02420230
 
KIAD - Wash DC/Dulles Intl, Virginia
Distance from station: WSW 45mi, 73km
Updated: Sun, 15-Sep-2019 5:08am EDT
Overcast
Overcast
 Wind from NW
Wind: NW 10 mph , 17 km/h
Temperature: 72°F , 22°C
Dew Point: 66°F , 19°C
Humidity: 83%
Barometer: 30.18 inHg , 1022 hPa
Clouds: Overcast
Visibility: 10 miles , 16 km
Cloud details: Few Clouds 2700 ft
Overcast 4100 ft
2019/09/15 09:08 KIAD 150908Z 32009KT 10SM FEW027 OVC041 22/19 A3018 RMK AO2 T02170194 $
KJYO - Leesburg/Godfrey Field, Virginia
Distance from station: WSW 48mi, 77km
Updated: Sun, 15-Sep-2019 5:15am EDT
Partly Cloudy
Partly Cloudy
 Wind from calm
Wind: Calm
Temperature: 64°F , 18°C
Dew Point: 64°F , 18°C
Humidity: 100%
Barometer: 30.20 inHg , 1022.7 hPa
Clouds: Partly Cloudy
Visibility: 10 miles , 16 km
Cloud details: Partly Cloudy 4500 ft
2019/09/15 09:15 KJYO 150915Z AUTO 00000KT 10SM SCT045 18/18 A3020 RMK AO2
KTHV - York Airport, Pennsylvania
Distance from station: NNW 48mi, 77km
Updated: Sun, 15-Sep-2019 5:14am EDT
Fog, Overcast
Fog, Overcast
 Wind from calm
Wind: Calm
Temperature: 63°F , 17°C
Dew Point: 61°F , 16°C
Humidity: 94%
Barometer: 30.19 inHg , 1022.4 hPa
Summary: Fog
Clouds: Overcast
Visibility: 1/2 mile , 0.8 km
Cloud details: Overcast 500 ft
2019/09/15 09:14 KTHV 150914Z AUTO 00000KT 1/2SM FG VV005 17/16 A3019 RMK AO2 T01670156
 
KRSP - Naval Support Fac Thurmont, Maryland, USA
Distance from station: NW 50mi, 81km
Updated: Sat, 18-May-2019 1:54pm EDT
NOT Current

 
2019/05/18 17:54 KRSP 181754Z AUTO VRB04KTLS21/16 A3004 RMK AO2 SLP168 T02110161 10228 20172 $
KRYT - Fountain Dale Airport, Pennsylvania
Distance from station: NW 52mi, 84km
Updated: Mon, 13-Nov-2017 7:53am EST
NOT Current
Mist, Overcast
Mist, Overcast
 Wind from calm
Wind: Calm
Temperature: 37°F , 3°C
Dew Point: 34°F , 1°C
Humidity: 87%
Barometer: 30.31 inHg , 1026.4 hPa
Summary: Mist
Clouds: Overcast
Visibility: 5 miles , 8 km
Cloud details: Overcast 700 ft
2017/11/13 12:53 KRYT 131253Z AUTO 00000KT 5SM BR OVC007 03/01 A3031 RMK AO2 SLP275 T00280011 TSNO $
KHEF - Manassas Municipal Airport, Virginia
Distance from station: SW 57mi, 91km
Updated: Sun, 15-Sep-2019 4:56am EDT
Overcast
Overcast
 Wind from calm
Wind: Calm
Temperature: 72°F , 22°C
Dew Point: 70°F , 21°C
Humidity: 94%
Barometer: 30.17 inHg , 1021.7 hPa
Clouds: Overcast
Visibility: 10 miles , 16 km
Cloud details: Overcast 2000 ft
2019/09/15 08:56 KHEF 150856Z AUTO 00000KT 10SM OVC020 22/21 A3017 RMK AO2 SLP221 T02220206 55000
 
KNYG - Quantico Marine Corps Air Fac, Virginia
Distance from station: SSW 60mi, 96km
Updated: Sun, 15-Sep-2019 4:56am EDT
Overcast
Overcast
 Wind from WNW
Wind: WNW 3 mph , 6 km/h
Temperature: 73°F , 23°C
Dew Point: 70°F , 21°C
Humidity: 89%
Barometer: 30.16 inHg , 1021.3 hPa
Clouds: Overcast
Visibility: 10 miles , 16 km
Cloud details: Overcast 3300 ft
2019/09/15 08:56 KNYG 150856Z AUTO 29003KT 10SM OVC033 23/21 A3016 RMK AO2 SLP215 T02280211 55001
KCGE - Cambridge-Dorchester Reg Airport, Maryland
Distance from station: SE 60mi, 97km
Updated: Sun, 15-Sep-2019 5:20am EDT
Overcast
Overcast
 Wind from calm
Wind: Calm
Temperature: 75°F , 24°C
Dew Point: 73°F , 23°C
Humidity: 94%
Barometer: 30.15 inHg , 1021 hPa
Clouds: Overcast
Visibility: 10 miles , 16 km
Cloud details: Mostly Cloudy 5000 ft
Overcast 5500 ft
2019/09/15 09:20 KCGE 150920Z AUTO 00000KT 10SM BKN050 OVC055 24/23 A3015 RMK A01
K2W6 - St Marys Co Reg Airport, Maryland
Distance from station: SSE 64mi, 103km
Updated: Sun, 15-Sep-2019 5:23am EDT
Overcast
Overcast
 Wind from SSW
Wind: SSW 3 mph , 6 km/h
Temperature: 73°F , 23°C
Dew Point: 70°F , 21°C
Humidity: 89%
Barometer: 30.17 inHg , 1021.7 hPa
Clouds: Overcast
Cloud details: Overcast 5000 ft
2019/09/15 09:23 K2W6 150923Z AUTO 21003KT OVC050 23/21 A3017 RMK AO1
 
KHGR - Hagerstown Reg Airport, Maryland
Distance from station: WNW 64mi, 103km
Updated: Sun, 15-Sep-2019 5:30am EDT
Mist, Few clouds
Mist, Few clouds
 Wind from calm
Wind: Calm
Temperature: 63°F , 17°C
Dew Point: 61°F , 16°C
Humidity: 94%
Barometer: 30.20 inHg , 1022.7 hPa
Summary: Mist
Clouds: Few Clouds
Visibility: 1 1/4 miles , 2 km
Cloud details: Few Clouds 300 ft
2019/09/15 09:30 KHGR 150930Z AUTO 00000KT 1 1/4SM BR FEW003 17/16 A3020 RMK AO2 T01720161
KLNS - Lancaster Airport, Pennsylvania
Distance from station: NNE 64mi, 104km
Updated: Sun, 15-Sep-2019 4:53am EDT
Few Clouds
Few Clouds
 Wind from WNW
Wind: WNW 3 mph , 6 km/h
Temperature: 68°F , 20°C
Dew Point: 64°F , 18°C
Humidity: 88%
Barometer: 30.17 inHg , 1021.7 hPa
Clouds: Few Clouds
Visibility: 8 miles , 13 km
Cloud details: Few Clouds 2600 ft
2019/09/15 08:53 KLNS 150853Z AUTO 29003KT 8SM FEW026 20/18 A3017 RMK AO2 SLP215 T02000183 53002
KILG - New Castle Airport, Wilmington, Delaware
Distance from station: ENE 66mi, 106km
Updated: Sun, 15-Sep-2019 4:51am EDT
Mostly Cloudy
Mostly Cloudy
 Wind from calm
Wind: Calm
Temperature: 72°F , 22°C
Dew Point: 72°F , 22°C
Humidity: 100%
Barometer: 30.16 inHg , 1021.3 hPa
Clouds: Mostly Cloudy
Visibility: 9 miles , 14 km
Cloud details: Mostly Cloudy 2900 ft
Mostly Cloudy 7500 ft
2019/09/15 08:51 KILG 150851Z AUTO 00000KT 9SM BKN029 BKN075 22/22 A3016 RMK AO2 RAB0755E11 SLP212 P0000 60000 T02220217 55004 $
 
KDOV - Dover Air Force Base, Delaware
Distance from station: E 66mi, 107km
Updated: Sun, 15-Sep-2019 4:56am EDT
Overcast
Overcast
 Wind from S
Wind: S 7 mph , 11 km/h
Temperature: 73°F , 23°C
Dew Point: 70°F , 21°C
Humidity: 89%
Barometer: 30.14 inHg , 1020.7 hPa
Clouds: Overcast
Visibility: 10 miles , 16 km
Cloud details: Overcast 3800 ft
2019/09/15 08:56 KDOV 150856Z AUTO 19006KT 10SM OVC038 23/21 A3014 RMK AO2 SLP209 T02280207 57006 $
KMDT - Harrisburg Intl Airport, Middletown, Pennsylvania
Distance from station: N 67mi, 107km
Updated: Sun, 15-Sep-2019 5:20am EDT
Mist, Overcast
Mist, Overcast
 Wind from NW
Wind: NW 8 mph , 13 km/h
Temperature: 66°F , 19°C
Dew Point: 64°F , 18°C
Humidity: 94%
Barometer: 30.18 inHg , 1022 hPa
Summary: Mist
Clouds: Overcast
Visibility: 1 mile , 2 km
Cloud details: Overcast 200 ft
2019/09/15 09:20 KMDT 150920Z 31007KT 1SM R13/5500VP6000FT BR VV002 19/18 A3018 RMK AO2 T01940183 $
KMQS - Chester Co Carlson Airport, Coatesville, Pennsylvania
Distance from station: NE 68mi, 109km
Updated: Sun, 15-Sep-2019 5:15am EDT
Mostly Cloudy
Mostly Cloudy
 Wind from calm
Wind: Calm
Temperature: 68°F , 20°C
Dew Point: 68°F , 20°C
Humidity: 100%
Barometer: 30.19 inHg , 1022.4 hPa
Clouds: Mostly Cloudy
Visibility: 7 miles , 11 km
Cloud details: Mostly Cloudy 1700 ft
Mostly Cloudy 2100 ft
2019/09/15 09:15 KMQS 150915Z AUTO 00000KT 7SM BKN017 BKN021 20/20 A3019 RMK AO2
 
KCXY - Capital City Airport, Harrisburg, Pennsylvania
Distance from station: N 68mi, 110km
Updated: Sun, 15-Sep-2019 5:19am EDT
Fog, Overcast
Fog, Overcast
 Wind from W
Wind: W 3 mph , 6 km/h
Temperature: 66°F , 19°C
Dew Point: 63°F , 17°C
Humidity: 88%
Barometer: 30.19 inHg , 1022.4 hPa
Summary: Fog
Clouds: Overcast
Visibility: 1/4 mile , 0.4 km
Cloud details: Overcast 300 ft
2019/09/15 09:19 KCXY 150919Z AUTO 26003KT 1/4SM R08/1800V2800FT FG VV003 19/17 A3019 RMK AO2 T01890167
KNHK - Patuxent River NAS, Maryland
Distance from station: SE 69mi, 111km
Updated: Sun, 15-Sep-2019 4:52am EDT
Overcast
Overcast
 Wind from SW
Wind: SW 5 mph , 7 km/h
Temperature: 75°F , 24°C
Dew Point: 70°F , 21°C
Humidity: 83%
Barometer: 30.14 inHg , 1020.7 hPa
Clouds: Overcast
Visibility: 10 miles , 16 km
Cloud details: Overcast 4900 ft
2019/09/15 08:52 KNHK 150852Z AUTO 22004KT 10SM OVC049 24/21 A3014 RMK AO2 SLP206 T02440211 57008 $
KMRB - Eastern WV Reg Airport/Shepherd Field, Martinsburg, West Virginia
Distance from station: W 70mi, 112km
Updated: Sun, 15-Sep-2019 5:19am EDT
Mist, Clear
Mist, Clear
 Wind from calm
Wind: Calm
Temperature: 63°F , 17°C
Dew Point: 61°F , 16°C
Humidity: 94%
Barometer: 30.20 inHg , 1022.7 hPa
Summary: Mist
Clouds: Clear
Visibility: 1 3/4 miles , 2.8 km
2019/09/15 09:19 KMRB 150919Z AUTO 00000KT 1 3/4SM BR CLR 17/16 A3020 RMK AO2 T01670161
 
KHWY - Warrenton-Fauquier Airport, Warrenton, Virginia
Distance from station: SW 71mi, 114km
Updated: Sun, 15-Sep-2019 5:15am EDT
Overcast
Overcast
 Wind from calm
Wind: Calm
Temperature: 72°F , 22°C
Dew Point: 68°F , 20°C
Humidity: 88%
Barometer: 30.18 inHg , 1022 hPa
Clouds: Overcast
Visibility: 10 miles , 16 km
Cloud details: Mostly Cloudy 2000 ft
Mostly Cloudy 2600 ft
Overcast 3300 ft
2019/09/15 09:15 KHWY 150915Z AUTO 00000KT 10SM BKN020 BKN026 OVC033 22/20 A3018 RMK AO2 T02180197
KRMN - Stafford Regional Airport, Virginia
Distance from station: SW 71mi, 114km
Updated: Sun, 15-Sep-2019 5:15am EDT
Overcast
Overcast
 Wind from calm
Wind: Calm
Temperature: 70°F , 21°C
Dew Point: 70°F , 21°C
Humidity: 100%
Barometer: 30.20 inHg , 1022.7 hPa
Clouds: Overcast
Visibility: 10 miles , 16 km
Cloud details: Overcast 3000 ft
2019/09/15 09:15 KRMN 150915Z AUTO 00000KT 10SM OVC030 21/21 A3020 RMK AO2 T02120212
KNUI - Webster Naval, St Inigoes, Maryland
Distance from station: S 76mi, 123km
Updated: Sun, 15-Sep-2019 4:53am EDT
Overcast
Overcast
 Wind from SSW
Wind: SSW 8 mph , 13 km/h
Temperature: 79°F , 26°C
Dew Point: 72°F , 22°C
Humidity: 79%
Barometer: 30.14 inHg , 1020.7 hPa
Clouds: Overcast
Visibility: 10 miles , 16 km
Cloud details: Overcast 4800 ft
2019/09/15 08:53 KNUI 150853Z AUTO 21007KT 10SM OVC048 26/22 A3014 RMK AO2 SLP204 T02610217 57007
 
KEZF - Fredericksburg/Shan, Virginia
Distance from station: SSW 78mi, 126km
Updated: Sun, 15-Sep-2019 5:15am EDT
Overcast
Overcast
 Wind from calm
Wind: Calm
Temperature: 72°F , 22°C
Dew Point: 72°F , 22°C
Humidity: 100%
Barometer: 30.15 inHg , 1021 hPa
Clouds: Overcast
Visibility: 10 miles , 16 km
Cloud details: Overcast 3300 ft
2019/09/15 09:15 KEZF 150915Z AUTO 00000KT 10SM OVC033 22/22 A3015 RMK AO2 T02230219
KOKV - Winchester Regional Airport, Virginia
Distance from station: W 78mi, 126km
Updated: Sun, 15-Sep-2019 5:15am EDT
Clear
Clear
 Wind from NNW
Wind: NNW 3 mph , 6 km/h
Temperature: 61°F , 16°C
Dew Point: 61°F , 16°C
Humidity: 100%
Barometer: 30.20 inHg , 1022.7 hPa
Clouds: Clear
Visibility: 10 miles , 16 km
2019/09/15 09:15 KOKV 150915Z AUTO 33003KT 10SM CLR 16/16 A3020 RMK AO2
KCJR - Culpeper Regional Airport, Virginia
Distance from station: SW 79mi, 128km
Updated: Sun, 15-Sep-2019 5:15am EDT
Overcast
Overcast
 Wind from N
Wind: N 5 mph , 7 km/h
Temperature: 72°F , 22°C
Dew Point: 70°F , 21°C
Humidity: 94%
Barometer: 30.19 inHg , 1022.4 hPa
Clouds: Overcast
Visibility: 10 miles , 16 km
Cloud details: Overcast 2900 ft
2019/09/15 09:15 KCJR 150915Z AUTO 35004KT 10SM OVC029 22/21 A3019 RMK AO2 T02170207